Time;durP1;ratioP1;P1;durP2;ratioP2;P2;SDS_P1;SDS_P2;PMS_P1;PMS_P2;Temp;Humidity;BMP_temperature;BMP_pressure;BME280_temperature;BME280_humidity;BME280_pressure;Samples;Min_cycle;Max_cycle;Signal;HPM_P1;HPM_P2
2021/11/03 00:00:15;;;;;;;;;;;;;;;;;;;;;
2021/11/03 00:02:44;;;;;;;1.50;1.40;;;;;;;6.14;66.77;98860.22;6210030;23;20103;-79
2021/11/03 00:05:13;;;;;;;1.30;1.30;;;;;;;6.20;66.65;98865.31;6215747;23;20019;-77
2021/11/03 00:11:26;;;;;;;1.20;1.20;;;;;;;6.04;66.52;98855.59;6129262;23;20016;-77
2021/11/03 00:14:19;;;;;;;0.75;0.75;;;;;;;6.19;66.71;98879.19;6189412;23;20087;-79
2021/11/03 00:16:45;;;;;;;0.60;0.60;;;;;;;6.09;66.81;98861.03;6212365;23;20047;-77
2021/11/03 00:19:10;;;;;;;0.45;0.45;;;;;;;6.15;66.17;98867.25;6210240;23;20012;-77
2021/11/03 00:21:38;;;;;;;2.20;0.70;;;;;;;6.12;66.24;98868.63;6234193;22;20007;-79
2021/11/03 00:24:19;;;;;;;0.38;0.35;;;;;;;6.15;66.61;98881.63;6305198;22;20015;-78
2021/11/03 00:26:44;;;;;;;0.45;0.45;;;;;;;6.21;66.01;98887.88;6303791;22;20038;-76
2021/11/03 00:29:10;;;;;;;0.40;0.40;;;;;;;6.20;66.72;98887.03;6252476;22;20015;-76
2021/11/03 00:31:36;;;;;;;0.88;0.88;;;;;;;6.14;66.40;98879.19;6303742;22;20046;-80
2021/11/03 00:34:04;;;;;;;0.75;0.75;;;;;;;6.16;67.15;98890.59;6278934;22;20465;-80
2021/11/03 00:36:32;;;;;;;0.88;0.88;;;;;;;6.04;66.94;98872.69;6307150;22;20003;-79
2021/11/03 00:39:03;;;;;;;1.27;1.17;;;;;;;6.01;66.79;98867.00;6279590;22;20014;-77
2021/11/03 00:41:28;;;;;;;1.65;1.48;;;;;;;5.99;67.06;98875.44;6278601;22;20025;-77
2021/11/03 00:43:54;;;;;;;1.05;1.05;;;;;;;6.05;66.86;98889.81;6279499;22;20023;-76
2021/11/03 00:46:22;;;;;;;1.08;0.98;;;;;;;6.02;67.66;98891.16;6278503;22;20007;-77
2021/11/03 00:48:51;;;;;;;1.92;1.70;;;;;;;6.02;68.07;98891.16;6273280;22;20007;-74
2021/11/03 00:51:17;;;;;;;2.00;1.85;;;;;;;6.00;67.69;98893.34;6303067;22;20082;-76
2021/11/03 00:53:42;;;;;;;2.20;2.10;;;;;;;5.88;68.35;98873.78;6274296;22;20030;-77
2021/11/03 00:56:08;;;;;;;1.85;1.75;;;;;;;5.90;68.76;98890.59;6304116;22;20074;-76
2021/11/03 00:58:34;;;;;;;1.27;1.17;;;;;;;5.76;68.45;98866.72;6299385;22;20074;-75
2021/11/03 01:01:01;;;;;;;1.08;1.05;;;;;;;5.73;68.46;98877.31;6247611;22;19999;-77
2021/11/03 01:03:29;;;;;;;0.70;0.70;;;;;;;5.64;68.07;98863.47;6251935;22;20418;-78
2021/11/03 01:05:55;;;;;;;0.60;0.60;;;;;;;5.75;67.83;98885.97;6250128;22;20007;-76
2021/11/03 01:08:21;;;;;;;0.52;0.50;;;;;;;5.72;68.26;98881.94;6302223;22;20056;-79
2021/11/03 01:10:52;;;;;;;0.70;0.70;;;;;;;5.67;68.02;98879.22;6274691;22;20003;-78
2021/11/03 01:13:23;;;;;;;0.85;0.85;;;;;;;5.66;67.79;98888.41;6278208;22;20422;-78
2021/11/03 01:15:49;;;;;;;0.93;0.93;;;;;;;5.47;67.94;98869.16;6304249;22;20004;-76
2021/11/03 01:18:17;;;;;;;0.60;0.60;;;;;;;5.47;67.69;98868.38;6303730;22;20032;-75
2021/11/03 01:20:44;;;;;;;0.60;0.60;;;;;;;5.56;68.41;98888.41;6303400;22;20048;-76
2021/11/03 01:23:10;;;;;;;0.85;0.60;;;;;;;5.47;68.17;98873.78;6305342;22;20024;-75
2021/11/03 01:25:36;;;;;;;0.73;0.70;;;;;;;5.54;68.16;98890.59;6302872;22;19999;-75
2021/11/03 01:28:02;;;;;;;1.17;0.93;;;;;;;5.53;68.25;98889.78;6273268;22;20026;-76
2021/11/03 01:30:34;;;;;;;0.90;0.90;;;;;;;5.39;68.13;98867.81;6250626;22;20014;-76
2021/11/03 01:33:03;;;;;;;2.72;1.92;;;;;;;5.46;68.66;98888.41;6275849;22;20056;-74
2021/11/03 01:35:28;;;;;;;2.08;1.90;;;;;;;5.37;68.78;98880.84;6298973;22;19996;-74
2021/11/03 01:37:56;;;;;;;2.00;1.90;;;;;;;5.38;68.37;98877.03;6249304;22;20014;-75
2021/11/03 01:40:25;;;;;;;1.55;1.45;;;;;;;5.38;68.94;98876.22;6277863;22;20011;-74
2021/11/03 01:42:51;;;;;;;1.63;1.52;;;;;;;5.45;68.88;98892.19;6303978;22;20002;-74
2021/11/03 01:45:29;;;;;;;1.02;1.02;;;;;;;5.35;68.51;98882.97;6303152;22;20329;-74
2021/11/03 01:48:00;;;;;;;0.70;0.70;;;;;;;5.34;68.06;98886.78;6303210;22;20384;-74
2021/11/03 01:50:37;;;;;;;5.20;0.50;;;;;;;5.29;68.89;98889.50;6304150;22;20417;-74
2021/11/03 01:53:28;;;;;;;0.50;0.50;;;;;;;5.29;68.57;98889.50;6277148;22;20052;-75
2021/11/03 01:56:02;;;;;;;0.30;0.30;;;;;;;5.27;68.41;98891.66;6304812;22;19999;-74
2021/11/03 01:58:33;;;;;;;0.65;0.63;;;;;;;5.22;68.38;98891.63;6301682;22;20000;-73
2021/11/03 02:00:59;;;;;;;0.60;0.60;;;;;;;5.20;68.59;98896.53;6302965;22;19999;-74
2021/11/03 02:03:28;;;;;;;2.75;2.15;;;;;;;5.15;68.97;98896.50;6301296;22;20011;-74
2021/11/03 02:06:09;;;;;;;5.70;2.42;;;;;;;5.22;69.28;98900.56;6302774;22;20104;-75
2021/11/03 02:08:42;;;;;;;3.65;3.35;;;;;;;5.13;69.77;98890.53;6298958;22;19999;-74
2021/11/03 02:11:10;;;;;;;2.60;2.40;;;;;;;5.16;69.85;98888.09;6304063;22;19999;-74
2021/11/03 02:13:40;;;;;;;2.67;2.47;;;;;;;5.24;69.84;98897.59;6304834;22;20325;-74
2021/11/03 02:16:43;;;;;;;;;;;;;;;;;;;;;
2021/11/03 02:20:13;;;;;;;2.28;2.17;;;;;;;5.23;70.71;98906.84;6307271;22;20067;-74
2021/11/03 02:23:01;;;;;;;3.10;2.90;;;;;;;5.21;70.76;98904.38;6261776;22;20011;-74
2021/11/03 02:25:51;;;;;;;2.88;2.67;;;;;;;5.23;70.98;98907.63;6266849;22;20011;-74
2021/11/03 02:28:20;;;;;;;2.35;2.25;;;;;;;5.03;71.27;98881.28;6275288;22;20679;-77
2021/11/03 02:30:53;;;;;;;2.20;2.10;;;;;;;5.02;70.79;98871.56;6272458;22;20458;-74
2021/11/03 02:33:25;;;;;;;3.03;2.83;;;;;;;5.19;71.00;98905.72;6270894;22;20004;-74
2021/11/03 02:36:05;;;;;;;3.28;2.95;;;;;;;5.04;71.40;98888.34;6244080;22;20023;-73
2021/11/03 02:38:41;;;;;;;3.40;3.10;;;;;;;5.11;71.12;98898.94;6273668;22;20043;-75
2021/11/03 02:41:17;;;;;;;3.65;3.35;;;;;;;5.12;71.49;98907.88;6276597;22;19996;-74
2021/11/03 02:44:04;;;;;;;3.10;2.90;;;;;;;5.09;72.17;98903.00;6248874;22;20045;-75
2021/11/03 02:46:32;;;;;;;2.88;2.67;;;;;;;5.15;71.79;98908.16;6245650;22;20004;-76
2021/11/03 02:48:58;;;;;;;2.13;1.85;;;;;;;5.10;71.83;98907.34;6246886;22;20069;-76
2021/11/03 02:51:49;;;;;;;4.60;2.55;;;;;;;5.06;71.29;98902.44;6267606;22;20007;-74
2021/11/03 02:54:21;;;;;;;3.25;2.15;;;;;;;5.14;71.44;98913.84;6273222;22;20004;-75
2021/11/03 02:57:03;;;;;;;3.25;3.05;;;;;;;5.18;72.07;98920.34;6245196;22;20027;-74
2021/11/03 02:59:31;;;;;;;4.90;3.42;;;;;;;5.13;71.80;98907.59;6281363;22;20026;-75
2021/11/03 03:01:59;;;;;;;3.13;2.92;;;;;;;5.20;72.42;98912.78;6253446;22;20003;-75
2021/11/03 03:04:31;;;;;;;2.78;2.58;;;;;;;5.29;72.29;98921.22;6273556;22;20004;-76
2021/11/03 03:06:57;;;;;;;4.20;3.05;;;;;;;5.16;71.67;98907.06;6247531;22;20343;-75
2021/11/03 03:09:23;;;;;;;2.63;2.45;;;;;;;5.22;72.01;98924.16;6249550;22;20007;-75
2021/11/03 03:11:53;;;;;;;2.53;2.38;;;;;;;5.15;72.47;98908.16;6275720;22;20000;-74
2021/11/03 03:14:33;;;;;;;2.00;1.80;;;;;;;5.18;72.42;98915.78;6272235;22;20004;-76
2021/11/03 03:16:59;;;;;;;2.50;2.30;;;;;;;5.14;72.10;98916.53;6276882;22;20023;-76
2021/11/03 03:19:24;;;;;;;2.75;2.58;;;;;;;5.17;72.34;98916.84;6248763;22;20311;-76
2021/11/03 03:21:52;;;;;;;2.05;1.90;;;;;;;5.12;72.47;98913.28;6273708;22;20419;-75
2021/11/03 03:24:18;;;;;;;2.15;1.98;;;;;;;5.20;72.21;98923.63;6235439;22;20485;-76
2021/11/03 03:26:44;;;;;;;2.70;1.92;;;;;;;5.12;72.08;98926.84;6298729;22;20011;-77
2021/11/03 03:29:10;;;;;;;1.90;1.70;;;;;;;5.14;72.43;98921.97;6297585;22;20014;-76
2021/11/03 03:31:37;;;;;;;1.88;1.38;;;;;;;5.07;72.42;98920.31;6273120;22;20095;-76
2021/11/03 03:34:07;;;;;;;1.50;1.40;;;;;;;4.98;71.65;98905.69;6297948;22;20000;-75
2021/11/03 03:36:36;;;;;;;1.55;1.48;;;;;;;5.00;72.31;98911.63;6273488;22;20000;-76
2021/11/03 03:39:13;;;;;;;2.47;1.20;;;;;;;5.01;71.96;98921.41;6273760;22;20003;-76
2021/11/03 03:41:40;;;;;;;1.05;1.05;;;;;;;4.95;72.16;98933.31;6298284;22;19992;-77
2021/11/03 03:44:08;;;;;;;0.82;0.82;;;;;;;4.81;71.49;98927.56;6272288;22;20087;-76
2021/11/03 03:46:34;;;;;;;1.02;1.02;;;;;;;4.72;71.62;98921.03;6273851;22;20015;-75
2021/11/03 03:49:24;;;;;;;0.80;0.80;;;;;;;4.78;71.52;98932.69;6273143;22;20007;-76
2021/11/03 03:51:56;;;;;;;1.10;1.10;;;;;;;4.64;72.17;98926.94;6297299;22;20329;-75
2021/11/03 03:54:26;;;;;;;1.58;1.48;;;;;;;4.61;71.71;98925.56;6297760;22;20091;-74
2021/11/03 03:56:51;;;;;;;1.25;1.15;;;;;;;4.76;71.74;98948.38;6272041;22;20064;-74
2021/11/03 03:59:17;;;;;;;1.23;1.15;;;;;;;4.74;71.84;98950.53;6272890;22;20407;-76
2021/11/03 04:01:43;;;;;;;1.10;1.00;;;;;;;4.59;71.98;98926.91;6271699;22;20387;-75
2021/11/03 04:04:19;;;;;;;0.45;0.40;;;;;;;4.62;71.67;98946.16;6269454;22;20419;-74
2021/11/03 04:06:44;;;;;;;0.90;0.90;;;;;;;4.53;71.18;98947.72;6271855;22;20004;-74
2021/11/03 04:09:10;;;;;;;2.05;1.10;;;;;;;4.52;71.52;98962.34;6274437;22;20061;-74
2021/11/03 04:11:37;;;;;;;0.70;0.70;;;;;;;4.41;71.08;98960.63;6271054;22;20000;-74
2021/11/03 04:14:03;;;;;;;0.85;0.85;;;;;;;4.32;71.45;98971.97;6272079;22;20011;-74
2021/11/03 04:16:29;;;;;;;1.20;1.13;;;;;;;4.21;71.22;98966.75;6272126;22;20373;-75
2021/11/03 04:18:58;;;;;;;1.08;1.02;;;;;;;4.16;71.36;98964.78;6269960;22;20011;-74
2021/11/03 04:21:24;;;;;;;1.00;1.00;;;;;;;4.07;71.43;98974.47;6295680;22;20106;-74
2021/11/03 04:23:57;;;;;;;0.80;0.80;;;;;;;3.93;71.83;98966.81;6282462;22;20038;-74
2021/11/03 04:26:28;;;;;;;0.50;0.50;;;;;;;3.98;71.89;98974.94;6303644;22;20007;-74
2021/11/03 04:28:53;;;;;;;0.75;0.75;;;;;;;3.85;71.37;98953.75;6302965;22;20002;-74
2021/11/03 04:31:20;;;;;;;0.50;0.50;;;;;;;3.90;71.48;98964.63;6277078;22;20560;-74
2021/11/03 04:33:48;;;;;;;0.77;0.77;;;;;;;3.90;71.04;98978.13;6274309;22;20003;-74
2021/11/03 04:36:14;;;;;;;1.40;1.30;;;;;;;3.69;71.44;98950.09;6277599;22;20011;-74
2021/11/03 04:38:39;;;;;;;1.35;0.65;;;;;;;3.70;71.23;98953.63;6274978;22;20003;-74
2021/11/03 04:41:05;;;;;;;2.08;1.13;;;;;;;3.76;71.52;98966.13;6276718;22;19999;-74
2021/11/03 04:43:32;;;;;;;0.95;0.95;;;;;;;3.65;71.47;98954.38;6303329;22;20102;-75
2021/11/03 04:45:58;;;;;;;0.77;0.77;;;;;;;3.71;71.30;98971.47;6279127;22;20007;-75
2021/11/03 04:48:26;;;;;;;1.42;1.33;;;;;;;3.61;71.74;98970.31;6303861;22;20123;-74
2021/11/03 04:50:53;;;;;;;2.10;1.90;;;;;;;3.59;70.96;98961.66;6303931;22;20007;-73
2021/11/03 04:53:19;;;;;;;5.85;4.25;;;;;;;3.75;72.06;98975.28;6301247;22;20004;-74
2021/11/03 04:55:48;;;;;;;4.18;3.88;;;;;;;3.70;71.82;98967.16;6305006;22;20011;-74
2021/11/03 04:58:14;;;;;;;3.88;3.67;;;;;;;3.76;72.67;98971.53;6302553;22;20006;-76
2021/11/03 05:00:45;;;;;;;4.63;4.22;;;;;;;3.84;72.77;98973.72;6252946;22;20003;-75
2021/11/03 05:03:14;;;;;;;5.82;4.53;;;;;;;3.89;73.20;98968.38;6279255;22;20425;-75
2021/11/03 05:05:40;;;;;;;5.38;4.88;;;;;;;3.95;72.87;98967.34;6252352;22;20065;-75
2021/11/03 05:08:06;;;;;;;6.20;5.55;;;;;;;4.10;73.08;98973.97;6304428;22;20003;-76
2021/11/03 05:10:36;;;;;;;6.53;5.97;;;;;;;4.20;73.31;98982.16;6303248;22;20060;-75
2021/11/03 05:13:04;;;;;;;6.35;5.85;;;;;;;4.32;73.79;98996.31;6304593;22;20003;-74
2021/11/03 05:15:30;;;;;;;7.03;6.35;;;;;;;4.38;73.53;98999.88;6278431;22;20026;-75
2021/11/03 05:17:58;;;;;;;7.53;6.75;;;;;;;4.31;74.17;98983.88;6303274;22;20418;-74
2021/11/03 05:20:24;;;;;;;7.85;7.05;;;;;;;4.33;74.02;98987.13;6300861;22;20078;-75
2021/11/03 05:22:52;;;;;;;9.18;7.95;;;;;;;4.35;74.16;98993.09;6302429;22;20034;-75
2021/11/03 05:25:29;;;;;;;7.82;6.60;;;;;;;4.40;73.91;98999.63;6302723;22;20100;-75
2021/11/03 05:27:55;;;;;;;8.20;6.60;;;;;;;4.41;74.17;99015.59;6276442;22;20033;-74
2021/11/03 05:30:26;;;;;;;7.85;7.18;;;;;;;4.35;74.45;99006.63;6302364;22;20082;-74
2021/11/03 05:32:52;;;;;;;8.30;7.38;;;;;;;4.31;74.62;99004.72;6305150;22;20388;-75
2021/11/03 05:35:18;;;;;;;7.70;7.05;;;;;;;4.29;74.61;99018.50;6303926;22;20007;-74
2021/11/03 05:37:44;;;;;;;6.55;6.00;;;;;;;4.24;74.33;99010.31;6277419;22;20077;-73
2021/11/03 05:40:16;;;;;;;6.00;5.50;;;;;;;4.34;74.63;99020.44;6277157;22;20475;-75
2021/11/03 05:42:41;;;;;;;6.15;5.30;;;;;;;4.45;74.48;99026.72;6304984;22;19999;-74
2021/11/03 05:45:08;;;;;;;6.07;5.63;;;;;;;4.51;74.83;99028.38;6305758;22;20011;-75
2021/11/03 05:47:37;;;;;;;6.32;5.88;;;;;;;4.54;74.76;99025.16;6306237;22;20082;-75
2021/11/03 05:50:04;;;;;;;10.95;6.45;;;;;;;4.53;74.51;99012.72;6302645;22;20418;-75
2021/11/03 05:52:32;;;;;;;12.77;8.02;;;;;;;4.60;75.36;99018.72;6303907;22;20762;-75
2021/11/03 05:54:58;;;;;;;7.43;6.78;;;;;;;4.57;75.43;99019.25;6291801;22;20054;-75
2021/11/03 05:57:33;;;;;;;6.85;6.15;;;;;;;4.69;75.07;99033.38;6307207;22;20003;-75
2021/11/03 06:00:00;;;;;;;7.13;6.47;;;;;;;4.68;75.49;99031.75;6311088;22;20000;-76
2021/11/03 06:02:37;;;;;;;6.32;5.88;;;;;;;4.66;75.19;99036.63;6306960;22;20222;-75
2021/11/03 06:05:03;;;;;;;7.25;6.75;;;;;;;4.56;74.88;99028.44;6278423;22;20392;-74
2021/11/03 06:07:28;;;;;;;7.45;6.72;;;;;;;4.48;74.99;99020.78;6303242;22;20050;-74
2021/11/03 06:09:58;;;;;;;7.43;6.72;;;;;;;4.46;75.41;99022.94;6302194;22;20078;-75
2021/11/03 06:12:23;;;;;;;6.45;5.95;;;;;;;4.47;75.53;99030.00;6306405;22;20062;-74
2021/11/03 06:14:53;;;;;;;7.93;6.03;;;;;;;4.51;75.14;99052.75;6276211;22;20037;-77
2021/11/03 06:17:29;;;;;;;;;;;;;;;;;;;;;
2021/11/03 06:19:55;;;;;;;7.22;6.82;;;;;;;4.40;74.95;99045.66;6306543;22;20082;-77
2021/11/03 06:22:20;;;;;;;7.55;6.85;;;;;;;4.35;75.32;99055.34;6285379;22;20022;-75
2021/11/03 06:24:46;;;;;;;7.35;6.70;;;;;;;4.28;75.21;99043.94;6311699;22;20071;-74
2021/11/03 06:27:12;;;;;;;6.57;6.10;;;;;;;4.21;75.60;99035.19;6288997;22;20425;-77
2021/11/03 06:29:38;;;;;;;6.70;6.10;;;;;;;4.16;75.50;99035.16;6280023;22;20003;-78
2021/11/03 06:32:06;;;;;;;4.40;4.10;;;;;;;4.11;75.34;99040.53;6306065;22;20019;-77
2021/11/03 06:34:32;;;;;;;4.53;4.32;;;;;;;4.18;75.90;99049.25;6281472;22;20007;-75
2021/11/03 06:37:10;;;;;;;3.80;3.50;;;;;;;4.14;75.42;99056.25;6277445;22;20068;-76
2021/11/03 06:39:36;;;;;;;3.38;3.03;;;;;;;4.09;75.43;99053.47;6303422;22;20007;-79
2021/11/03 06:42:07;;;;;;;4.25;3.97;;;;;;;3.96;75.65;99046.63;6275631;22;20010;-77
2021/11/03 06:44:32;;;;;;;2.97;2.78;;;;;;;3.90;75.64;99032.22;6304492;22;20010;-76
2021/11/03 06:46:58;;;;;;;3.63;3.42;;;;;;;3.98;75.50;99061.50;6303865;22;20333;-75
2021/11/03 06:49:23;;;;;;;3.70;3.50;;;;;;;3.99;75.52;99065.84;6273727;22;20375;-76
2021/11/03 06:51:49;;;;;;;3.33;3.03;;;;;;;3.94;75.50;99060.41;6252889;22;20011;-76
2021/11/03 06:54:24;;;;;;;5.47;4.22;;;;;;;4.01;75.39;99065.59;6275884;22;20049;-75
2021/11/03 06:56:51;;;;;;;6.43;5.97;;;;;;;4.02;75.74;99073.44;6301391;22;20003;-76
2021/11/03 06:59:19;;;;;;;6.10;5.68;;;;;;;4.02;75.48;99078.84;6252422;22;20011;-76
2021/11/03 07:01:46;;;;;;;6.60;6.07;;;;;;;4.01;75.74;99077.22;6303179;22;20075;-75
2021/11/03 07:04:13;;;;;;;6.68;6.15;;;;;;;3.93;75.64;99068.75;6303288;22;20064;-77
2021/11/03 07:06:42;;;;;;;8.30;5.35;;;;;;;3.92;75.73;99076.06;6301169;22;20027;-75
2021/11/03 07:09:09;;;;;;;6.28;5.78;;;;;;;4.05;76.01;99092.97;6304333;22;20070;-74
2021/11/03 07:11:34;;;;;;;6.68;6.00;;;;;;;4.02;75.66;99086.97;6301864;22;20489;-75
2021/11/03 07:14:00;;;;;;;11.05;6.78;;;;;;;4.11;76.35;99097.34;6306363;22;20035;-76
2021/11/03 07:16:26;;;;;;;7.70;6.97;;;;;;;4.11;76.32;99092.75;6273888;22;20018;-74
2021/11/03 07:18:52;;;;;;;6.90;6.25;;;;;;;4.13;76.21;99095.19;6277378;22;20429;-76
2021/11/03 07:21:18;;;;;;;7.78;6.82;;;;;;;4.13;76.56;99100.59;6302690;22;20065;-74
2021/11/03 07:23:44;;;;;;;10.07;7.07;;;;;;;4.18;76.47;99106.06;6275843;22;20119;-75
2021/11/03 07:26:11;;;;;;;6.70;6.05;;;;;;;4.19;76.53;99110.38;6304504;22;20007;-76
2021/11/03 07:28:37;;;;;;;9.50;6.00;;;;;;;4.24;77.04;99120.47;6271298;22;20426;-76
2021/11/03 07:31:04;;;;;;;9.15;6.47;;;;;;;4.28;77.00;99121.56;6322182;22;20062;-76
2021/11/03 07:33:34;;;;;;;7.80;6.93;;;;;;;4.31;77.31;99127.31;6322402;22;20007;-77
2021/11/03 07:36:00;;;;;;;6.47;5.63;;;;;;;4.35;77.14;99124.88;6305869;22;20007;-76
2021/11/03 07:38:25;;;;;;;6.65;6.25;;;;;;;4.38;77.34;99121.69;6301155;22;20421;-77
2021/11/03 07:40:56;;;;;;;8.77;7.03;;;;;;;4.45;77.42;99129.59;6305100;22;20010;-76
2021/11/03 07:43:26;;;;;;;6.05;5.55;;;;;;;4.48;77.11;99131.78;6303942;22;20409;-76
2021/11/03 07:45:53;;;;;;;5.25;4.95;;;;;;;4.52;77.09;99141.03;6276377;22;20066;-76
2021/11/03 07:48:20;;;;;;;4.75;4.45;;;;;;;4.57;77.35;99137.53;6303931;22;20007;-77
2021/11/03 07:50:49;;;;;;;5.05;4.38;;;;;;;4.61;76.64;99134.03;6303385;22;20066;-76
2021/11/03 07:53:21;;;;;;;3.85;3.65;;;;;;;4.67;76.98;99141.16;6303655;22;20003;-74
2021/11/03 07:55:50;;;;;;;4.05;3.75;;;;;;;4.75;76.57;99150.69;6301638;22;20018;-74
2021/11/03 07:58:21;;;;;;;4.40;4.10;;;;;;;4.82;76.46;99154.00;6304316;22;20010;-75
2021/11/03 08:00:47;;;;;;;4.18;3.97;;;;;;;4.91;76.85;99162.47;6276267;22;20037;-72
2021/11/03 08:03:12;;;;;;;5.07;4.78;;;;;;;4.96;77.25;99167.91;6276203;22;20007;-76
2021/11/03 08:05:38;;;;;;;5.22;3.90;;;;;;;4.99;76.71;99161.97;6304253;22;20330;-78
2021/11/03 08:08:10;;;;;;;7.00;5.95;;;;;;;5.10;77.15;99167.47;6304795;22;20007;-77
2021/11/03 08:10:36;;;;;;;6.45;5.90;;;;;;;5.19;76.74;99171.31;6303500;22;20001;-75
2021/11/03 08:13:03;;;;;;;6.40;5.75;;;;;;;5.26;77.28;99177.34;6300327;22;20086;-75
2021/11/03 08:15:41;;;;;;;6.10;5.50;;;;;;;5.34;76.79;99170.59;6303953;22;20007;-75
2021/11/03 08:18:07;;;;;;;6.43;5.13;;;;;;;5.41;77.28;99169.28;6301089;22;20097;-74
2021/11/03 08:20:35;;;;;;;4.20;3.90;;;;;;;5.59;76.87;99172.63;6276859;22;20091;-76
2021/11/03 08:23:01;;;;;;;6.75;4.03;;;;;;;5.97;78.17;99177.94;6277060;22;20007;-75
2021/11/03 08:25:27;;;;;;;3.78;3.58;;;;;;;6.81;77.46;99181.41;6307252;22;20022;-75
2021/11/03 08:27:52;;;;;;;2.97;2.78;;;;;;;7.89;76.07;99196.72;6299269;22;20019;-74
2021/11/03 08:30:18;;;;;;;2.22;2.10;;;;;;;8.96;74.09;99191.75;6299130;22;20418;-75
2021/11/03 08:32:51;;;;;;;1.70;1.50;;;;;;;10.08;71.93;99199.84;6298831;22;20069;-75
2021/11/03 08:35:19;;;;;;;2.45;2.35;;;;;;;10.88;69.10;99200.94;6300681;22;20106;-74
2021/11/03 08:37:46;;;;;;;1.60;1.50;;;;;;;11.47;67.13;99201.28;6304370;22;20441;-76
2021/11/03 08:40:15;;;;;;;2.30;2.20;;;;;;;11.74;66.77;99201.63;6298651;22;20007;-76
2021/11/03 08:42:41;;;;;;;2.55;2.35;;;;;;;11.63;66.19;99209.22;6257301;22;20088;-74
2021/11/03 08:45:10;;;;;;;2.65;2.55;;;;;;;11.34;66.87;99210.28;6303305;22;20057;-75
2021/11/03 08:47:36;;;;;;;2.53;2.42;;;;;;;10.91;66.79;99208.53;6302995;22;20003;-75
2021/11/03 08:50:07;;;;;;;2.50;2.30;;;;;;;10.51;66.82;99208.03;6248083;22;20018;-75
2021/11/03 08:52:32;;;;;;;3.50;2.60;;;;;;;10.18;67.20;99210.66;6300911;22;20007;-76
2021/11/03 08:54:58;;;;;;;2.92;2.70;;;;;;;9.87;67.68;99202.84;6297787;22;20007;-74
2021/11/03 08:57:24;;;;;;;5.60;1.90;;;;;;;9.71;67.31;99217.75;6275558;22;20018;-74
2021/11/03 08:59:51;;;;;;;2.47;2.38;;;;;;;9.54;67.75;99224.47;6302169;22;20018;-75
2021/11/03 09:02:16;;;;;;;2.50;2.30;;;;;;;9.44;67.34;99224.59;6303394;22;20011;-74
2021/11/03 09:04:42;;;;;;;2.78;2.67;;;;;;;9.35;67.54;99229.03;6301899;22;20011;-75
2021/11/03 09:07:11;;;;;;;2.72;2.38;;;;;;;9.23;67.28;99229.44;6299179;22;20091;-74
2021/11/03 09:09:45;;;;;;;2.85;2.75;;;;;;;9.09;66.80;99223.78;6302084;22;20003;-74
2021/11/03 09:12:10;;;;;;;2.25;2.15;;;;;;;8.98;67.03;99227.69;6303798;22;20049;-74
2021/11/03 09:14:36;;;;;;;2.10;1.83;;;;;;;8.93;67.45;99227.75;6302228;22;20390;-75
2021/11/03 09:17:02;;;;;;;2.03;1.92;;;;;;;8.97;67.30;99231.53;6299577;22;20029;-75
2021/11/03 09:19:27;;;;;;;2.45;2.25;;;;;;;9.03;67.70;99235.84;6304273;22;20033;-75
2021/11/03 09:21:53;;;;;;;3.22;3.03;;;;;;;9.07;67.44;99236.91;6302994;22;20083;-74
2021/11/03 09:24:18;;;;;;;2.95;2.75;;;;;;;9.15;67.62;99233.56;6292211;22;20094;-75
2021/11/03 09:26:44;;;;;;;2.30;2.15;;;;;;;9.26;67.73;99228.84;6272117;22;20125;-75
2021/11/03 09:29:11;;;;;;;2.15;2.05;;;;;;;9.40;67.47;99237.16;6269240;22;20010;-74
2021/11/03 09:31:38;;;;;;;2.80;2.53;;;;;;;9.57;67.74;99234.81;6269976;22;20437;-75
2021/11/03 09:34:03;;;;;;;3.17;2.33;;;;;;;9.75;67.02;99232.44;6268870;22;20076;-75
2021/11/03 09:36:31;;;;;;;46.70;4.47;;;;;;;9.96;67.25;99233.84;6270403;22;20032;-75
2021/11/03 09:38:57;;;;;;;102.15;14.82;;;;;;;10.12;66.55;99241.88;6274919;22;20004;-74
2021/11/03 09:41:34;;;;;;;3.40;2.67;;;;;;;10.12;65.67;99239.16;6278401;22;20007;-76
2021/11/03 09:44:15;;;;;;;2.45;2.35;;;;;;;10.17;65.66;99247.25;6305191;22;20119;-75
2021/11/03 09:46:48;;;;;;;2.60;2.13;;;;;;;10.25;65.40;99249.34;6281004;22;20011;-73
2021/11/03 09:49:19;;;;;;;3.00;2.78;;;;;;;10.26;64.99;99250.97;6306632;22;20008;-73
2021/11/03 09:51:56;;;;;;;3.30;3.10;;;;;;;10.31;65.09;99241.91;6304519;22;20049;-74
2021/11/03 09:54:33;;;;;;;63.67;9.18;;;;;;;10.36;65.02;99255.53;6271714;22;20317;-74
2021/11/03 09:57:08;;;;;;;3.85;3.03;;;;;;;10.36;64.43;99252.00;6273700;22;20000;-74
2021/11/03 09:59:43;;;;;;;3.15;3.00;;;;;;;10.26;63.81;99258.34;6267188;22;20008;-74
2021/11/03 10:02:30;;;;;;;3.55;3.10;;;;;;;10.14;63.99;99253.31;6292501;22;20083;-73
2021/11/03 10:05:14;;;;;;;2.70;2.50;;;;;;;10.12;64.13;99250.06;6267868;22;20003;-74
2021/11/03 10:07:53;;;;;;;2.80;2.70;;;;;;;10.31;64.66;99250.91;6270002;22;20326;-74
2021/11/03 10:10:32;;;;;;;2.83;2.47;;;;;;;11.43;65.00;99265.16;6269498;22;20076;-74
2021/11/03 10:13:11;;;;;;;14.35;3.17;;;;;;;12.80;62.79;99264.69;6272082;22;20365;-74
2021/11/03 10:15:37;;;;;;;2.97;2.72;;;;;;;13.58;60.90;99269.94;6272604;22;20455;-74
2021/11/03 10:18:15;;;;;;;10.68;2.80;;;;;;;14.73;58.69;99272.00;6271291;22;20004;-74
2021/11/03 10:21:03;;;;;;;153.73;11.63;;;;;;;16.02;56.87;99276.91;6269950;22;20007;-74
2021/11/03 10:23:33;;;;;;;5.47;1.85;;;;;;;16.98;52.46;99286.59;6270685;22;20012;-75
2021/11/03 10:26:09;;;;;;;2.17;2.08;;;;;;;16.97;51.15;99279.44;6273138;22;20016;-75
2021/11/03 10:28:40;;;;;;;3.10;1.50;;;;;;;17.03;51.96;99278.13;6272802;22;20071;-76
2021/11/03 10:31:28;;;;;;;1.25;1.15;;;;;;;18.29;52.54;99288.84;6268772;22;20000;-74
2021/11/03 10:34:02;;;;;;;1.33;1.20;;;;;;;19.12;50.11;99287.84;6295570;22;20011;-74
2021/11/03 10:36:37;;;;;;;1.65;1.00;;;;;;;19.61;48.73;99289.59;6297589;22;20010;-74
2021/11/03 10:39:12;;;;;;;1.25;0.60;;;;;;;19.89;47.94;99295.13;6270588;22;20322;-74
2021/11/03 10:41:38;;;;;;;1.40;1.17;;;;;;;20.01;46.54;99291.47;6297472;22;20390;-75
2021/11/03 10:44:25;;;;;;;1.55;0.95;;;;;;;20.47;47.22;99291.00;6271426;22;20038;-76
2021/11/03 10:46:55;;;;;;;0.55;0.55;;;;;;;21.18;47.06;99296.59;6274082;22;20079;-76
2021/11/03 10:49:46;;;;;;;0.77;0.60;;;;;;;21.98;45.71;99302.53;6273729;22;20003;-75
2021/11/03 10:52:57;;;;;;;0.40;0.40;;;;;;;22.22;44.04;99297.75;6274635;22;20014;-75
2021/11/03 10:55:37;;;;;;;0.80;0.80;;;;;;;21.78;42.94;99287.84;6297209;22;20034;-75
2021/11/03 10:58:12;;;;;;;2.17;0.60;;;;;;;21.29;42.71;99300.41;6274962;22;20004;-76
2021/11/03 11:00:57;;;;;;;0.50;0.50;;;;;;;20.62;42.82;99297.69;6274512;22;20288;-75
2021/11/03 11:03:27;;;;;;;0.40;0.40;;;;;;;19.97;43.32;99308.00;6273039;22;20221;-76
2021/11/03 11:06:03;;;;;;;0.75;0.57;;;;;;;19.34;43.77;99298.38;6274204;22;20000;-76
2021/11/03 11:08:30;;;;;;;0.50;0.45;;;;;;;18.86;44.86;99304.84;6270823;22;20624;-76
2021/11/03 11:11:02;;;;;;;1.15;0.98;;;;;;;18.26;44.77;99311.66;6272277;22;20011;-75
2021/11/03 11:13:52;;;;;;;0.65;0.65;;;;;;;17.79;46.08;99303.75;6294133;22;20008;-76
2021/11/03 11:16:47;;;;;;;0.40;0.40;;;;;;;17.26;46.44;99304.25;6258369;22;20088;-76
2021/11/03 11:19:18;;;;;;;6.75;0.50;;;;;;;16.91;46.65;99306.47;6274313;22;20023;-78
2021/11/03 11:21:50;;;;;;;2.67;0.70;;;;;;;16.61;46.58;99300.16;6273719;22;20098;-75
2021/11/03 11:24:22;;;;;;;1.73;0.63;;;;;;;16.18;46.73;99305.53;6284588;22;20092;-75
2021/11/03 11:27:15;;;;;;;0.57;0.50;;;;;;;15.98;47.90;99311.78;6273638;22;20017;-74
2021/11/03 11:30:15;;;;;;;0.35;0.30;;;;;;;15.92;47.88;99313.13;6301635;22;20034;-76
2021/11/03 11:32:43;;;;;;;0.70;0.60;;;;;;;15.75;47.70;99311.97;6266527;22;20018;-75
2021/11/03 11:35:08;;;;;;;0.60;0.60;;;;;;;15.61;47.52;99308.59;6280079;22;20049;-75
2021/11/03 11:37:40;;;;;;;0.40;0.40;;;;;;;15.64;48.58;99302.44;6301451;22;20426;-76
2021/11/03 11:40:23;;;;;;;0.60;0.60;;;;;;;15.74;48.05;99307.63;6305204;22;20406;-76
2021/11/03 11:43:05;;;;;;;0.30;0.30;;;;;;;15.88;48.04;99323.97;6304702;22;20003;-75
2021/11/03 11:45:34;;;;;;;0.50;0.50;;;;;;;15.73;47.27;99317.00;6303106;22;20007;-75
2021/11/03 11:48:32;;;;;;;0.70;0.70;;;;;;;15.41;47.46;99310.09;6305908;22;20003;-76
2021/11/03 11:51:01;;;;;;;1.58;0.70;;;;;;;15.27;48.09;99311.06;6298411;22;20432;-75
2021/11/03 11:53:34;;;;;;;0.70;0.70;;;;;;;15.19;48.54;99326.44;6305132;22;20015;-75
2021/11/03 11:56:09;;;;;;;0.88;0.88;;;;;;;15.15;48.45;99319.97;6299692;22;20003;-76
2021/11/03 11:58:47;;;;;;;0.65;0.65;;;;;;;15.10;48.75;99314.63;6306231;22;20084;-76
2021/11/03 12:01:12;;;;;;;1.05;1.05;;;;;;;15.13;49.16;99322.25;6301054;22;20049;-75
2021/11/03 12:03:51;;;;;;;2.58;1.27;;;;;;;15.29;48.96;99319.03;6302677;22;20104;-75